sensor_id;sensor_type;location;lat;lon;timestamp;temperature;humidity
28845;DHT22;15976;47.938;7.758;2023-03-01T00:01:20;2.10;61.70
28845;DHT22;15976;47.938;7.758;2023-03-01T00:03:48;2.10;61.60
28845;DHT22;15976;47.938;7.758;2023-03-01T00:06:16;2.10;61.70
28845;DHT22;15976;47.938;7.758;2023-03-01T00:08:43;2.10;61.90
28845;DHT22;15976;47.938;7.758;2023-03-01T00:11:17;2.10;62.00
28845;DHT22;15976;47.938;7.758;2023-03-01T00:13:46;2.10;62.00
28845;DHT22;15976;47.938;7.758;2023-03-01T00:16:17;2.10;62.10
28845;DHT22;15976;47.938;7.758;2023-03-01T00:18:45;2.00;62.10
28845;DHT22;15976;47.938;7.758;2023-03-01T00:21:12;2.00;62.10
28845;DHT22;15976;47.938;7.758;2023-03-01T00:23:40;2.00;62.20
28845;DHT22;15976;47.938;7.758;2023-03-01T00:26:10;2.00;62.20
28845;DHT22;15976;47.938;7.758;2023-03-01T00:28:39;2.00;62.30
28845;DHT22;15976;47.938;7.758;2023-03-01T00:31:13;2.00;62.30
28845;DHT22;15976;47.938;7.758;2023-03-01T00:33:41;1.90;62.20
28845;DHT22;15976;47.938;7.758;2023-03-01T00:36:10;1.90;62.40
28845;DHT22;15976;47.938;7.758;2023-03-01T00:38:39;1.90;62.50
28845;DHT22;15976;47.938;7.758;2023-03-01T00:41:15;1.90;62.50
28845;DHT22;15976;47.938;7.758;2023-03-01T00:43:44;1.90;62.50
28845;DHT22;15976;47.938;7.758;2023-03-01T00:46:13;1.90;62.40
28845;DHT22;15976;47.938;7.758;2023-03-01T00:48:41;1.90;62.20
28845;DHT22;15976;47.938;7.758;2023-03-01T00:51:11;1.80;62.10
28845;DHT22;15976;47.938;7.758;2023-03-01T00:53:39;1.90;62.30
28845;DHT22;15976;47.938;7.758;2023-03-01T00:56:08;1.80;62.30
28845;DHT22;15976;47.938;7.758;2023-03-01T00:58:35;1.80;62.20
28845;DHT22;15976;47.938;7.758;2023-03-01T01:01:14;1.80;62.30
28845;DHT22;15976;47.938;7.758;2023-03-01T01:06:14;1.80;62.20
28845;DHT22;15976;47.938;7.758;2023-03-01T01:08:41;1.70;62.00
28845;DHT22;15976;47.938;7.758;2023-03-01T01:11:10;1.70;62.10
28845;DHT22;15976;47.938;7.758;2023-03-01T01:13:38;1.70;62.30
28845;DHT22;15976;47.938;7.758;2023-03-01T01:16:07;1.60;62.40
28845;DHT22;15976;47.938;7.758;2023-03-01T01:18:34;1.60;62.60
28845;DHT22;15976;47.938;7.758;2023-03-01T01:21:08;1.60;62.60
28845;DHT22;15976;47.938;7.758;2023-03-01T01:23:37;1.60;62.60
28845;DHT22;15976;47.938;7.758;2023-03-01T01:26:10;1.60;62.60
28845;DHT22;15976;47.938;7.758;2023-03-01T01:28:38;1.60;62.90
28845;DHT22;15976;47.938;7.758;2023-03-01T01:31:07;1.60;62.90
28845;DHT22;15976;47.938;7.758;2023-03-01T01:33:34;1.60;63.00
28845;DHT22;15976;47.938;7.758;2023-03-01T01:36:02;1.60;63.10
28845;DHT22;15976;47.938;7.758;2023-03-01T01:38:29;1.60;63.20
28845;DHT22;15976;47.938;7.758;2023-03-01T01:40:56;1.60;63.20
28845;DHT22;15976;47.938;7.758;2023-03-01T01:43:28;1.60;63.20
28845;DHT22;15976;47.938;7.758;2023-03-01T01:46:01;1.60;63.20
28845;DHT22;15976;47.938;7.758;2023-03-01T01:48:46;1.60;63.20
28845;DHT22;15976;47.938;7.758;2023-03-01T01:51:28;1.60;63.20
28845;DHT22;15976;47.938;7.758;2023-03-01T01:54:14;1.60;63.10
28845;DHT22;15976;47.938;7.758;2023-03-01T01:56:52;1.50;63.00
28845;DHT22;15976;47.938;7.758;2023-03-01T01:59:20;1.50;63.10
28845;DHT22;15976;47.938;7.758;2023-03-01T02:01:52;1.50;63.20
28845;DHT22;15976;47.938;7.758;2023-03-01T02:04:20;1.50;63.20
28845;DHT22;15976;47.938;7.758;2023-03-01T02:07:17;1.50;63.30
28845;DHT22;15976;47.938;7.758;2023-03-01T02:09:43;1.40;63.00
28845;DHT22;15976;47.938;7.758;2023-03-01T02:12:16;1.40;63.00
28845;DHT22;15976;47.938;7.758;2023-03-01T02:14:44;1.40;63.00
28845;DHT22;15976;47.938;7.758;2023-03-01T02:17:13;1.30;63.00
28845;DHT22;15976;47.938;7.758;2023-03-01T02:22:36;1.30;63.10
28845;DHT22;15976;47.938;7.758;2023-03-01T02:30:49;1.30;63.20
28845;DHT22;15976;47.938;7.758;2023-03-01T02:33:37;1.30;63.10
28845;DHT22;15976;47.938;7.758;2023-03-01T02:36:09;1.20;63.10
28845;DHT22;15976;47.938;7.758;2023-03-01T02:38:39;1.20;63.20
28845;DHT22;15976;47.938;7.758;2023-03-01T02:41:08;1.20;63.40
28845;DHT22;15976;47.938;7.758;2023-03-01T02:43:37;1.20;63.40
28845;DHT22;15976;47.938;7.758;2023-03-01T02:46:16;1.10;63.50
28845;DHT22;15976;47.938;7.758;2023-03-01T02:48:47;1.20;63.80
28845;DHT22;15976;47.938;7.758;2023-03-01T02:56:48;1.20;64.00
28845;DHT22;15976;47.938;7.758;2023-03-01T02:59:21;1.20;64.00
28845;DHT22;15976;47.938;7.758;2023-03-01T03:01:49;1.20;64.10
28845;DHT22;15976;47.938;7.758;2023-03-01T03:04:19;1.10;64.10
28845;DHT22;15976;47.938;7.758;2023-03-01T03:06:50;1.10;64.20
28845;DHT22;15976;47.938;7.758;2023-03-01T03:09:18;1.10;64.20
28845;DHT22;15976;47.938;7.758;2023-03-01T03:11:46;1.10;64.30
28845;DHT22;15976;47.938;7.758;2023-03-01T03:14:15;1.20;64.30
28845;DHT22;15976;47.938;7.758;2023-03-01T03:16:48;1.20;64.10
28845;DHT22;15976;47.938;7.758;2023-03-01T03:19:17;1.10;64.00
28845;DHT22;15976;47.938;7.758;2023-03-01T03:21:44;1.10;64.00
28845;DHT22;15976;47.938;7.758;2023-03-01T03:24:11;1.10;64.20
28845;DHT22;15976;47.938;7.758;2023-03-01T03:26:39;1.10;64.20
28845;DHT22;15976;47.938;7.758;2023-03-01T03:29:06;1.00;64.20
28845;DHT22;15976;47.938;7.758;2023-03-01T03:31:33;1.00;64.30
28845;DHT22;15976;47.938;7.758;2023-03-01T03:34:01;1.10;64.50
28845;DHT22;15976;47.938;7.758;2023-03-01T03:36:28;1.00;64.50
28845;DHT22;15976;47.938;7.758;2023-03-01T03:38:55;1.00;65.40
28845;DHT22;15976;47.938;7.758;2023-03-01T03:41:22;1.00;64.70
28845;DHT22;15976;47.938;7.758;2023-03-01T03:43:49;1.00;64.60
28845;DHT22;15976;47.938;7.758;2023-03-01T03:46:17;1.00;64.60
28845;DHT22;15976;47.938;7.758;2023-03-01T03:48:45;1.00;64.70
28845;DHT22;15976;47.938;7.758;2023-03-01T03:51:14;1.00;64.70
28845;DHT22;15976;47.938;7.758;2023-03-01T03:53:43;1.00;64.60
28845;DHT22;15976;47.938;7.758;2023-03-01T03:56:10;1.00;64.70
28845;DHT22;15976;47.938;7.758;2023-03-01T03:58:38;1.00;64.60
28845;DHT22;15976;47.938;7.758;2023-03-01T04:01:05;1.00;64.60
28845;DHT22;15976;47.938;7.758;2023-03-01T04:03:35;1.00;64.50
28845;DHT22;15976;47.938;7.758;2023-03-01T04:06:03;0.90;64.40
28845;DHT22;15976;47.938;7.758;2023-03-01T04:08:31;0.90;64.50
28845;DHT22;15976;47.938;7.758;2023-03-01T04:11:01;0.90;64.60
28845;DHT22;15976;47.938;7.758;2023-03-01T04:13:48;0.90;64.80
28845;DHT22;15976;47.938;7.758;2023-03-01T04:16:16;0.80;64.80
28845;DHT22;15976;47.938;7.758;2023-03-01T04:18:44;0.90;64.90
28845;DHT22;15976;47.938;7.758;2023-03-01T04:21:12;0.80;64.90
28845;DHT22;15976;47.938;7.758;2023-03-01T04:23:39;0.80;65.20
28845;DHT22;15976;47.938;7.758;2023-03-01T04:26:08;0.80;65.00
28845;DHT22;15976;47.938;7.758;2023-03-01T04:28:41;0.80;65.00
28845;DHT22;15976;47.938;7.758;2023-03-01T04:31:14;0.80;64.80
28845;DHT22;15976;47.938;7.758;2023-03-01T04:33:50;0.80;64.80
28845;DHT22;15976;47.938;7.758;2023-03-01T04:36:23;0.80;64.90
28845;DHT22;15976;47.938;7.758;2023-03-01T04:38:50;0.80;64.80
28845;DHT22;15976;47.938;7.758;2023-03-01T04:41:20;0.80;64.90
28845;DHT22;15976;47.938;7.758;2023-03-01T04:43:47;0.80;64.90
28845;DHT22;15976;47.938;7.758;2023-03-01T04:46:18;0.70;64.80
28845;DHT22;15976;47.938;7.758;2023-03-01T04:48:45;0.70;64.90
28845;DHT22;15976;47.938;7.758;2023-03-01T04:51:14;0.70;65.00
28845;DHT22;15976;47.938;7.758;2023-03-01T04:53:43;0.70;65.10
28845;DHT22;15976;47.938;7.758;2023-03-01T04:56:11;0.70;65.20
28845;DHT22;15976;47.938;7.758;2023-03-01T04:58:41;0.70;65.30
28845;DHT22;15976;47.938;7.758;2023-03-01T05:01:13;0.70;65.40
28845;DHT22;15976;47.938;7.758;2023-03-01T05:03:45;0.70;65.50
28845;DHT22;15976;47.938;7.758;2023-03-01T05:06:13;0.70;65.60
28845;DHT22;15976;47.938;7.758;2023-03-01T05:08:41;0.60;65.60
28845;DHT22;15976;47.938;7.758;2023-03-01T05:11:09;0.60;65.70
28845;DHT22;15976;47.938;7.758;2023-03-01T05:13:38;0.60;65.80
28845;DHT22;15976;47.938;7.758;2023-03-01T05:16:07;0.60;65.70
28845;DHT22;15976;47.938;7.758;2023-03-01T05:18:39;0.60;65.70
28845;DHT22;15976;47.938;7.758;2023-03-01T05:21:11;0.70;65.80
28845;DHT22;15976;47.938;7.758;2023-03-01T05:23:39;0.70;65.90
28845;DHT22;15976;47.938;7.758;2023-03-01T05:26:06;0.60;65.80
28845;DHT22;15976;47.938;7.758;2023-03-01T05:28:48;0.70;65.90
28845;DHT22;15976;47.938;7.758;2023-03-01T05:31:14;0.70;65.90
28845;DHT22;15976;47.938;7.758;2023-03-01T05:33:42;0.70;65.70
28845;DHT22;15976;47.938;7.758;2023-03-01T05:36:10;0.70;65.60
28845;DHT22;15976;47.938;7.758;2023-03-01T05:38:37;0.70;65.60
28845;DHT22;15976;47.938;7.758;2023-03-01T05:41:04;0.70;65.70
28845;DHT22;15976;47.938;7.758;2023-03-01T05:43:32;0.70;65.80
28845;DHT22;15976;47.938;7.758;2023-03-01T05:46:00;0.70;65.70
28845;DHT22;15976;47.938;7.758;2023-03-01T05:48:28;0.70;65.80
28845;DHT22;15976;47.938;7.758;2023-03-01T05:50:58;0.70;65.70
28845;DHT22;15976;47.938;7.758;2023-03-01T05:53:26;0.70;65.60
28845;DHT22;15976;47.938;7.758;2023-03-01T05:55:53;0.80;65.70
28845;DHT22;15976;47.938;7.758;2023-03-01T05:58:20;0.80;65.80
28845;DHT22;15976;47.938;7.758;2023-03-01T06:00:49;0.90;65.80
28845;DHT22;15976;47.938;7.758;2023-03-01T06:03:19;0.90;65.70
28845;DHT22;15976;47.938;7.758;2023-03-01T06:05:46;0.90;65.60
28845;DHT22;15976;47.938;7.758;2023-03-01T06:08:13;0.90;65.60
28845;DHT22;15976;47.938;7.758;2023-03-01T06:10:41;1.00;65.50
28845;DHT22;15976;47.938;7.758;2023-03-01T06:13:08;1.00;65.40
28845;DHT22;15976;47.938;7.758;2023-03-01T06:15:35;1.10;65.50
28845;DHT22;15976;47.938;7.758;2023-03-01T06:18:02;1.20;65.60
28845;DHT22;15976;47.938;7.758;2023-03-01T06:20:29;1.20;65.70
28845;DHT22;15976;47.938;7.758;2023-03-01T06:22:56;1.30;65.60
28845;DHT22;15976;47.938;7.758;2023-03-01T06:25:25;1.30;65.60
28845;DHT22;15976;47.938;7.758;2023-03-01T06:27:52;1.40;65.60
28845;DHT22;15976;47.938;7.758;2023-03-01T06:30:21;1.40;65.40
28845;DHT22;15976;47.938;7.758;2023-03-01T06:32:49;1.50;65.20
28845;DHT22;15976;47.938;7.758;2023-03-01T06:35:18;1.50;65.00
28845;DHT22;15976;47.938;7.758;2023-03-01T06:37:46;1.50;64.90
28845;DHT22;15976;47.938;7.758;2023-03-01T06:40:14;1.60;65.00
28845;DHT22;15976;47.938;7.758;2023-03-01T06:42:43;1.60;64.90
28845;DHT22;15976;47.938;7.758;2023-03-01T06:45:13;1.70;65.00
28845;DHT22;15976;47.938;7.758;2023-03-01T06:47:40;1.70;64.90
28845;DHT22;15976;47.938;7.758;2023-03-01T06:50:08;1.80;64.90
28845;DHT22;15976;47.938;7.758;2023-03-01T06:52:35;1.90;64.90
28845;DHT22;15976;47.938;7.758;2023-03-01T06:55:03;1.90;64.80
28845;DHT22;15976;47.938;7.758;2023-03-01T06:57:30;2.00;64.80
28845;DHT22;15976;47.938;7.758;2023-03-01T06:59:57;2.00;64.90
28845;DHT22;15976;47.938;7.758;2023-03-01T07:02:24;2.10;64.90
28845;DHT22;15976;47.938;7.758;2023-03-01T07:04:51;2.10;64.80
28845;DHT22;15976;47.938;7.758;2023-03-01T07:07:18;2.20;65.60
28845;DHT22;15976;47.938;7.758;2023-03-01T07:09:46;2.30;64.70
28845;DHT22;15976;47.938;7.758;2023-03-01T07:12:13;2.40;64.50
28845;DHT22;15976;47.938;7.758;2023-03-01T07:14:40;2.50;64.50
28845;DHT22;15976;47.938;7.758;2023-03-01T07:17:08;2.60;64.30
28845;DHT22;15976;47.938;7.758;2023-03-01T07:19:35;2.70;64.10
28845;DHT22;15976;47.938;7.758;2023-03-01T07:22:03;2.70;63.90
28845;DHT22;15976;47.938;7.758;2023-03-01T07:24:30;2.80;64.00
28845;DHT22;15976;47.938;7.758;2023-03-01T07:26:57;2.80;63.90
28845;DHT22;15976;47.938;7.758;2023-03-01T07:29:24;2.80;64.60
28845;DHT22;15976;47.938;7.758;2023-03-01T07:31:51;2.90;63.80
28845;DHT22;15976;47.938;7.758;2023-03-01T07:34:18;3.00;63.90
28845;DHT22;15976;47.938;7.758;2023-03-01T07:36:45;3.00;63.70
28845;DHT22;15976;47.938;7.758;2023-03-01T07:39:12;3.10;63.60
28845;DHT22;15976;47.938;7.758;2023-03-01T07:41:39;3.20;63.60
28845;DHT22;15976;47.938;7.758;2023-03-01T07:44:06;3.30;63.50
28845;DHT22;15976;47.938;7.758;2023-03-01T07:46:33;3.30;63.30
28845;DHT22;15976;47.938;7.758;2023-03-01T07:49:01;3.40;63.20
28845;DHT22;15976;47.938;7.758;2023-03-01T07:51:28;3.50;63.00
28845;DHT22;15976;47.938;7.758;2023-03-01T07:53:55;3.50;62.90
28845;DHT22;15976;47.938;7.758;2023-03-01T07:56:22;3.60;62.80
28845;DHT22;15976;47.938;7.758;2023-03-01T07:58:49;3.70;62.70
28845;DHT22;15976;47.938;7.758;2023-03-01T08:01:19;3.80;62.40
28845;DHT22;15976;47.938;7.758;2023-03-01T08:03:46;4.00;62.40
28845;DHT22;15976;47.938;7.758;2023-03-01T08:06:16;4.30;61.50
28845;DHT22;15976;47.938;7.758;2023-03-01T08:08:44;4.50;60.50
28845;DHT22;15976;47.938;7.758;2023-03-01T08:11:12;4.40;60.20
28845;DHT22;15976;47.938;7.758;2023-03-01T08:13:40;4.40;60.40
28845;DHT22;15976;47.938;7.758;2023-03-01T08:16:11;4.40;60.50
28845;DHT22;15976;47.938;7.758;2023-03-01T08:18:39;4.40;60.60
28845;DHT22;15976;47.938;7.758;2023-03-01T08:21:14;4.30;60.50
28845;DHT22;15976;47.938;7.758;2023-03-01T08:23:41;4.30;60.70
28845;DHT22;15976;47.938;7.758;2023-03-01T08:26:15;4.30;60.90
28845;DHT22;15976;47.938;7.758;2023-03-01T08:28:42;4.30;60.80
28845;DHT22;15976;47.938;7.758;2023-03-01T08:31:18;4.30;60.80
28845;DHT22;15976;47.938;7.758;2023-03-01T08:33:46;4.40;60.70
28845;DHT22;15976;47.938;7.758;2023-03-01T08:36:23;4.40;60.50
28845;DHT22;15976;47.938;7.758;2023-03-01T08:38:51;4.50;60.50
28845;DHT22;15976;47.938;7.758;2023-03-01T08:41:18;4.50;60.40
28845;DHT22;15976;47.938;7.758;2023-03-01T08:43:46;4.50;60.40
28845;DHT22;15976;47.938;7.758;2023-03-01T08:46:13;4.50;60.40
28845;DHT22;15976;47.938;7.758;2023-03-01T08:48:40;4.60;60.40
28845;DHT22;15976;47.938;7.758;2023-03-01T08:51:20;4.70;60.00
28845;DHT22;15976;47.938;7.758;2023-03-01T08:53:48;4.80;59.80
28845;DHT22;15976;47.938;7.758;2023-03-01T08:56:16;4.90;59.70
28845;DHT22;15976;47.938;7.758;2023-03-01T08:58:45;5.00;59.60
28845;DHT22;15976;47.938;7.758;2023-03-01T09:01:15;5.00;59.50
28845;DHT22;15976;47.938;7.758;2023-03-01T09:03:43;5.10;59.40
28845;DHT22;15976;47.938;7.758;2023-03-01T09:06:11;5.20;59.20
28845;DHT22;15976;47.938;7.758;2023-03-01T09:08:41;5.20;59.20
28845;DHT22;15976;47.938;7.758;2023-03-01T09:11:10;5.30;59.00
28845;DHT22;15976;47.938;7.758;2023-03-01T09:13:37;5.40;58.80
28845;DHT22;15976;47.938;7.758;2023-03-01T09:16:07;5.40;58.80
28845;DHT22;15976;47.938;7.758;2023-03-01T09:18:35;5.50;58.80
28845;DHT22;15976;47.938;7.758;2023-03-01T09:21:04;5.50;58.70
28845;DHT22;15976;47.938;7.758;2023-03-01T09:23:35;5.50;58.60
28845;DHT22;15976;47.938;7.758;2023-03-01T09:26:07;5.50;58.60
28845;DHT22;15976;47.938;7.758;2023-03-01T09:28:36;5.50;58.60
28845;DHT22;15976;47.938;7.758;2023-03-01T09:31:04;5.70;58.60
28845;DHT22;15976;47.938;7.758;2023-03-01T09:33:32;5.80;58.50
28845;DHT22;15976;47.938;7.758;2023-03-01T09:36:02;6.00;58.30
28845;DHT22;15976;47.938;7.758;2023-03-01T09:38:30;6.10;58.10
28845;DHT22;15976;47.938;7.758;2023-03-01T09:40:58;6.20;57.90
28845;DHT22;15976;47.938;7.758;2023-03-01T09:43:44;6.30;57.60
28845;DHT22;15976;47.938;7.758;2023-03-01T09:46:13;6.40;57.40
28845;DHT22;15976;47.938;7.758;2023-03-01T09:48:48;6.40;57.20
28845;DHT22;15976;47.938;7.758;2023-03-01T09:51:19;6.40;57.10
28845;DHT22;15976;47.938;7.758;2023-03-01T09:53:49;6.40;57.30
28845;DHT22;15976;47.938;7.758;2023-03-01T09:58:57;6.60;57.10
28845;DHT22;15976;47.938;7.758;2023-03-01T10:01:43;6.70;56.80
28845;DHT22;15976;47.938;7.758;2023-03-01T10:04:49;6.80;56.70
28845;DHT22;15976;47.938;7.758;2023-03-01T10:07:48;6.90;56.50
28845;DHT22;15976;47.938;7.758;2023-03-01T10:10:32;7.10;56.30
28845;DHT22;15976;47.938;7.758;2023-03-01T10:15:52;7.50;56.40
28845;DHT22;15976;47.938;7.758;2023-03-01T10:18:25;7.70;55.50
28845;DHT22;15976;47.938;7.758;2023-03-01T10:23:41;7.90;55.10
28845;DHT22;15976;47.938;7.758;2023-03-01T10:27:01;8.10;54.90
28845;DHT22;15976;47.938;7.758;2023-03-01T10:29:10;8.20;54.60
28845;DHT22;15976;47.938;7.758;2023-03-01T10:34:16;8.30;54.20
28845;DHT22;15976;47.938;7.758;2023-03-01T10:36:47;8.30;53.90
28845;DHT22;15976;47.938;7.758;2023-03-01T10:39:18;8.10;53.90
28845;DHT22;15976;47.938;7.758;2023-03-01T10:42:13;8.00;54.10
28845;DHT22;15976;47.938;7.758;2023-03-01T10:44:47;7.90;55.00
28845;DHT22;15976;47.938;7.758;2023-03-01T10:47:26;7.80;54.60
28845;DHT22;15976;47.938;7.758;2023-03-01T10:50:00;7.80;54.70
28845;DHT22;15976;47.938;7.758;2023-03-01T10:52:36;7.70;54.70
28845;DHT22;15976;47.938;7.758;2023-03-01T10:55:29;7.70;54.70
28845;DHT22;15976;47.938;7.758;2023-03-01T10:58:19;7.50;54.80
28845;DHT22;15976;47.938;7.758;2023-03-01T11:03:15;7.20;55.70
28845;DHT22;15976;47.938;7.758;2023-03-01T11:11:22;7.50;55.80
28845;DHT22;15976;47.938;7.758;2023-03-01T11:17:04;7.80;55.30
28845;DHT22;15976;47.938;7.758;2023-03-01T11:19:32;7.80;54.90
28845;DHT22;15976;47.938;7.758;2023-03-01T11:22:04;7.90;54.80
28845;DHT22;15976;47.938;7.758;2023-03-01T11:27:26;8.10;54.60
28845;DHT22;15976;47.938;7.758;2023-03-01T11:32:59;8.30;54.20
28845;DHT22;15976;47.938;7.758;2023-03-01T11:35:27;8.40;54.00
28845;DHT22;15976;47.938;7.758;2023-03-01T11:38:08;8.50;53.80
28845;DHT22;15976;47.938;7.758;2023-03-01T11:40:49;8.50;53.80
28845;DHT22;15976;47.938;7.758;2023-03-01T11:51:41;8.50;53.50
28845;DHT22;15976;47.938;7.758;2023-03-01T11:54:21;8.50;53.40
28845;DHT22;15976;47.938;7.758;2023-03-01T12:02:40;8.90;53.00
28845;DHT22;15976;47.938;7.758;2023-03-01T12:11:31;9.20;52.20
28845;DHT22;15976;47.938;7.758;2023-03-01T12:17:45;9.40;51.60
28845;DHT22;15976;47.938;7.758;2023-03-01T12:20:32;9.40;51.50
28845;DHT22;15976;47.938;7.758;2023-03-01T12:23:25;9.40;51.50
28845;DHT22;15976;47.938;7.758;2023-03-01T12:37:00;9.70;51.60
28845;DHT22;15976;47.938;7.758;2023-03-01T12:47:50;9.70;50.60
28845;DHT22;15976;47.938;7.758;2023-03-01T12:50:37;9.70;50.70
28845;DHT22;15976;47.938;7.758;2023-03-01T12:53:07;9.80;50.50
28845;DHT22;15976;47.938;7.758;2023-03-01T12:55:42;9.90;50.40
28845;DHT22;15976;47.938;7.758;2023-03-01T12:58:43;9.90;50.10
28845;DHT22;15976;47.938;7.758;2023-03-01T13:01:40;9.90;50.00
28845;DHT22;15976;47.938;7.758;2023-03-01T13:04:27;10.00;50.00
28845;DHT22;15976;47.938;7.758;2023-03-01T13:09:55;9.90;50.10
28845;DHT22;15976;47.938;7.758;2023-03-01T13:17:52;10.00;49.90
28845;DHT22;15976;47.938;7.758;2023-03-01T13:20:51;10.00;50.40
28845;DHT22;15976;47.938;7.758;2023-03-01T13:26:08;10.00;49.70
28845;DHT22;15976;47.938;7.758;2023-03-01T13:28:47;10.10;49.60
28845;DHT22;15976;47.938;7.758;2023-03-01T13:33:46;10.00;49.50
28845;DHT22;15976;47.938;7.758;2023-03-01T13:39:02;10.10;49.30
28845;DHT22;15976;47.938;7.758;2023-03-01T13:41:56;10.10;49.30
28845;DHT22;15976;47.938;7.758;2023-03-01T13:44:30;10.10;49.30
28845;DHT22;15976;47.938;7.758;2023-03-01T13:49:59;10.30;49.10
28845;DHT22;15976;47.938;7.758;2023-03-01T13:52:40;10.40;48.80
28845;DHT22;15976;47.938;7.758;2023-03-01T13:57:53;10.60;48.60
28845;DHT22;15976;47.938;7.758;2023-03-01T14:03:02;10.90;48.10
28845;DHT22;15976;47.938;7.758;2023-03-01T14:05:33;10.80;47.80
28845;DHT22;15976;47.938;7.758;2023-03-01T14:08:00;10.80;47.70
28845;DHT22;15976;47.938;7.758;2023-03-01T14:10:36;10.70;47.70
28845;DHT22;15976;47.938;7.758;2023-03-01T14:13:19;10.60;47.50
28845;DHT22;15976;47.938;7.758;2023-03-01T14:21:31;10.40;48.10
28845;DHT22;15976;47.938;7.758;2023-03-01T14:23:58;10.40;48.20
28845;DHT22;15976;47.938;7.758;2023-03-01T14:26:26;10.40;48.10
28845;DHT22;15976;47.938;7.758;2023-03-01T14:28:53;10.50;48.10
28845;DHT22;15976;47.938;7.758;2023-03-01T14:31:34;10.50;47.70
28845;DHT22;15976;47.938;7.758;2023-03-01T14:34:24;10.50;47.60
28845;DHT22;15976;47.938;7.758;2023-03-01T14:36:51;10.50;47.60
28845;DHT22;15976;47.938;7.758;2023-03-01T14:39:23;10.40;47.70
28845;DHT22;15976;47.938;7.758;2023-03-01T14:41:50;10.40;47.70
28845;DHT22;15976;47.938;7.758;2023-03-01T14:44:23;10.50;47.80
28845;DHT22;15976;47.938;7.758;2023-03-01T14:46:55;10.50;47.70
28845;DHT22;15976;47.938;7.758;2023-03-01T14:49:25;10.60;47.60
28845;DHT22;15976;47.938;7.758;2023-03-01T14:52:05;10.70;47.50
28845;DHT22;15976;47.938;7.758;2023-03-01T14:54:37;10.80;47.40
28845;DHT22;15976;47.938;7.758;2023-03-01T14:57:21;10.80;47.20
28845;DHT22;15976;47.938;7.758;2023-03-01T14:59:53;10.90;47.10
28845;DHT22;15976;47.938;7.758;2023-03-01T15:02:25;11.00;46.90
28845;DHT22;15976;47.938;7.758;2023-03-01T15:04:55;11.00;46.80
28845;DHT22;15976;47.938;7.758;2023-03-01T15:07:33;11.00;46.70
28845;DHT22;15976;47.938;7.758;2023-03-01T15:10:02;11.00;46.70
28845;DHT22;15976;47.938;7.758;2023-03-01T15:12:36;10.90;46.70
28845;DHT22;15976;47.938;7.758;2023-03-01T15:17:57;10.80;47.20
28845;DHT22;15976;47.938;7.758;2023-03-01T15:20:27;10.70;47.50
28845;DHT22;15976;47.938;7.758;2023-03-01T15:22:56;10.70;47.70
28845;DHT22;15976;47.938;7.758;2023-03-01T15:25:26;10.70;47.80
28845;DHT22;15976;47.938;7.758;2023-03-01T15:27:55;10.60;47.90
28845;DHT22;15976;47.938;7.758;2023-03-01T15:30:25;10.60;48.10
28845;DHT22;15976;47.938;7.758;2023-03-01T15:33:16;10.60;48.30
28845;DHT22;15976;47.938;7.758;2023-03-01T15:35:48;10.50;48.40
28845;DHT22;15976;47.938;7.758;2023-03-01T15:40:53;10.40;48.70
28845;DHT22;15976;47.938;7.758;2023-03-01T15:43:45;10.30;48.70
28845;DHT22;15976;47.938;7.758;2023-03-01T15:48:56;10.20;48.80
28845;DHT22;15976;47.938;7.758;2023-03-01T15:51:36;10.00;49.10
28845;DHT22;15976;47.938;7.758;2023-03-01T15:54:17;9.90;49.30
28845;DHT22;15976;47.938;7.758;2023-03-01T15:56:46;9.80;49.40
28845;DHT22;15976;47.938;7.758;2023-03-01T15:59:13;9.80;49.60
28845;DHT22;15976;47.938;7.758;2023-03-01T16:01:41;9.70;49.80
28845;DHT22;15976;47.938;7.758;2023-03-01T16:04:13;9.60;50.00
28845;DHT22;15976;47.938;7.758;2023-03-01T16:06:47;9.60;50.10
28845;DHT22;15976;47.938;7.758;2023-03-01T16:09:25;9.50;50.30
28845;DHT22;15976;47.938;7.758;2023-03-01T16:11:53;9.40;50.50
28845;DHT22;15976;47.938;7.758;2023-03-01T16:14:20;9.30;50.70
28845;DHT22;15976;47.938;7.758;2023-03-01T16:16:48;9.30;50.70
28845;DHT22;15976;47.938;7.758;2023-03-01T16:19:16;9.30;50.80
28845;DHT22;15976;47.938;7.758;2023-03-01T16:21:43;9.20;50.80
28845;DHT22;15976;47.938;7.758;2023-03-01T16:24:14;9.20;50.90
28845;DHT22;15976;47.938;7.758;2023-03-01T16:26:41;9.10;51.00
28845;DHT22;15976;47.938;7.758;2023-03-01T16:29:09;9.10;51.10
28845;DHT22;15976;47.938;7.758;2023-03-01T16:31:36;9.10;51.20
28845;DHT22;15976;47.938;7.758;2023-03-01T16:34:03;9.00;51.20
28845;DHT22;15976;47.938;7.758;2023-03-01T16:36:31;9.00;51.40
28845;DHT22;15976;47.938;7.758;2023-03-01T16:38:59;8.90;51.50
28845;DHT22;15976;47.938;7.758;2023-03-01T16:41:29;8.90;51.60
28845;DHT22;15976;47.938;7.758;2023-03-01T16:43:56;8.80;51.60
28845;DHT22;15976;47.938;7.758;2023-03-01T16:46:26;8.80;51.60
28845;DHT22;15976;47.938;7.758;2023-03-01T16:48:55;8.80;52.00
28845;DHT22;15976;47.938;7.758;2023-03-01T16:51:23;8.60;52.50
28845;DHT22;15976;47.938;7.758;2023-03-01T16:53:51;8.50;52.90
28845;DHT22;15976;47.938;7.758;2023-03-01T16:56:19;8.30;53.20
28845;DHT22;15976;47.938;7.758;2023-03-01T16:58:46;8.20;53.50
28845;DHT22;15976;47.938;7.758;2023-03-01T17:01:17;8.10;53.70
28845;DHT22;15976;47.938;7.758;2023-03-01T17:03:46;8.00;53.90
28845;DHT22;15976;47.938;7.758;2023-03-01T17:06:16;8.00;54.20
28845;DHT22;15976;47.938;7.758;2023-03-01T17:08:44;7.90;54.30
28845;DHT22;15976;47.938;7.758;2023-03-01T17:11:13;7.80;54.40
28845;DHT22;15976;47.938;7.758;2023-03-01T17:13:42;7.80;54.60
28845;DHT22;15976;47.938;7.758;2023-03-01T17:16:12;7.70;54.70
28845;DHT22;15976;47.938;7.758;2023-03-01T17:18:40;7.70;54.80
28845;DHT22;15976;47.938;7.758;2023-03-01T17:21:08;7.70;54.90
28845;DHT22;15976;47.938;7.758;2023-03-01T17:23:37;7.70;55.00
28845;DHT22;15976;47.938;7.758;2023-03-01T17:26:05;7.70;55.10
28845;DHT22;15976;47.938;7.758;2023-03-01T17:28:35;7.70;55.10
28845;DHT22;15976;47.938;7.758;2023-03-01T17:31:05;7.70;55.10
28845;DHT22;15976;47.938;7.758;2023-03-01T17:33:32;7.70;55.20
28845;DHT22;15976;47.938;7.758;2023-03-01T17:36:00;7.70;55.10
28845;DHT22;15976;47.938;7.758;2023-03-01T17:38:28;7.70;55.20
28845;DHT22;15976;47.938;7.758;2023-03-01T17:41:01;7.60;55.10
28845;DHT22;15976;47.938;7.758;2023-03-01T17:43:28;7.60;55.10
28845;DHT22;15976;47.938;7.758;2023-03-01T17:45:56;7.60;55.20
28845;DHT22;15976;47.938;7.758;2023-03-01T17:48:24;7.60;55.20
28845;DHT22;15976;47.938;7.758;2023-03-01T17:50:51;7.60;55.30
28845;DHT22;15976;47.938;7.758;2023-03-01T17:53:20;7.60;55.90
28845;DHT22;15976;47.938;7.758;2023-03-01T17:55:47;7.60;55.30
28845;DHT22;15976;47.938;7.758;2023-03-01T17:58:19;7.60;55.30
28845;DHT22;15976;47.938;7.758;2023-03-01T18:00:49;7.50;55.40
28845;DHT22;15976;47.938;7.758;2023-03-01T18:03:16;7.50;55.50
28845;DHT22;15976;47.938;7.758;2023-03-01T18:05:43;7.50;55.60
28845;DHT22;15976;47.938;7.758;2023-03-01T18:08:11;7.50;55.60
28845;DHT22;15976;47.938;7.758;2023-03-01T18:10:38;7.50;55.70
28845;DHT22;15976;47.938;7.758;2023-03-01T18:13:05;7.50;55.80
28845;DHT22;15976;47.938;7.758;2023-03-01T18:15:32;7.50;55.90